Time;durP1;ratioP1;P1;durP2;ratioP2;P2;SDS_P1;SDS_P2;PMS_P1;PMS_P2;Temp;Humidity;BMP_temperature;BMP_pressure;BME280_temperature;BME280_humidity;BME280_pressure;Samples;Min_cycle;Max_cycle;Signal;HPM_P1;HPM_P2
2022/01/17 00:01:40;;;;;;;17.10;2.25;;;5.20;99.90;;;;;;5096286;28;20044;-76
2022/01/17 00:04:06;;;;;;;16.35;2.95;;;5.20;99.90;;;;;;5095418;28;20063;-77
2022/01/17 00:06:32;;;;;;;14.68;2.50;;;5.10;99.90;;;;;;5095959;28;20036;-77
2022/01/17 00:08:57;;;;;;;16.88;2.50;;;5.10;99.90;;;;;;5096154;28;20052;-78
2022/01/17 00:11:24;;;;;;;19.95;2.50;;;5.10;99.90;;;;;;5095815;28;20067;-77
2022/01/17 00:13:49;;;;;;;15.48;2.60;;;5.20;99.90;;;;;;5095927;28;20040;-77
2022/01/17 00:16:24;;;;;;;18.23;2.40;;;5.20;99.90;;;;;;5095840;28;20052;-78
2022/01/17 00:21:17;;;;;;;10.57;2.05;;;5.20;99.90;;;;;;5094299;28;20056;-78
2022/01/17 00:23:43;;;;;;;12.75;2.10;;;5.20;99.90;;;;;;5095579;28;20483;-77
2022/01/17 00:26:09;;;;;;;15.18;2.55;;;5.20;99.90;;;;;;5095497;28;20494;-78
2022/01/17 00:28:35;;;;;;;15.65;2.92;;;5.30;99.90;;;;;;5095424;28;20056;-78
2022/01/17 00:31:04;;;;;;;13.90;2.38;;;5.30;99.90;;;;;;5095526;28;20040;-77
2022/01/17 00:33:31;;;;;;;14.88;2.20;;;5.30;99.90;;;;;;5094118;28;20044;-78
2022/01/17 00:35:57;;;;;;;18.05;2.53;;;5.20;99.90;;;;;;5095427;28;20080;-78
2022/01/17 00:38:23;;;;;;;12.75;2.60;;;5.20;99.90;;;;;;5095250;28;20078;-77
2022/01/17 00:40:48;;;;;;;13.63;2.10;;;5.10;99.90;;;;;;5095032;28;20093;-77
2022/01/17 00:43:14;;;;;;;15.27;2.25;;;5.10;99.90;;;;;;5095259;28;20094;-78
2022/01/17 00:45:43;;;;;;;10.80;1.92;;;5.10;99.90;;;;;;5095224;28;20490;-78
2022/01/17 00:48:09;;;;;;;12.15;2.15;;;5.10;99.90;;;;;;5093978;28;20052;-77
2022/01/17 00:50:37;;;;;;;15.57;2.70;;;5.10;99.90;;;;;;5094605;28;20040;-77
2022/01/17 00:53:04;;;;;;;15.77;2.20;;;5.10;99.90;;;;;;5093707;28;20059;-77
2022/01/17 00:55:36;;;;;;;16.70;2.30;;;5.10;99.90;;;;;;5095211;28;20047;-77
2022/01/17 00:58:02;;;;;;;14.18;2.40;;;5.10;99.90;;;;;;5095175;28;20048;-78
2022/01/17 01:00:28;;;;;;;10.43;1.92;;;5.00;99.90;;;;;;5095082;28;20036;-78
2022/01/17 01:02:54;;;;;;;12.63;2.55;;;5.00;99.90;;;;;;5094591;28;20426;-78
2022/01/17 01:05:20;;;;;;;16.02;2.53;;;5.00;99.90;;;;;;5094379;28;20052;-77
2022/01/17 01:07:46;;;;;;;12.88;2.92;;;5.10;99.90;;;;;;5094472;28;20058;-77
2022/01/17 01:10:13;;;;;;;14.40;2.35;;;5.00;99.90;;;;;;5094137;28;20052;-78
2022/01/17 01:12:41;;;;;;;18.13;3.70;;;5.00;99.90;;;;;;5093793;28;20143;-77
2022/01/17 01:15:13;;;;;;;11.68;2.08;;;5.00;99.90;;;;;;5094755;28;20058;-77
2022/01/17 01:17:53;;;;;;;8.75;1.77;;;5.10;99.90;;;;;;5094466;28;20048;-79
2022/01/17 01:28:22;;;;;;;11.68;3.10;;;5.00;99.90;;;;;;5094295;28;20052;-77
2022/01/17 01:30:51;;;;;;;15.20;2.65;;;5.00;99.90;;;;;;5094534;28;20051;-76
2022/01/17 01:33:25;;;;;;;12.23;2.33;;;4.90;99.90;;;;;;5094528;28;20040;-77
2022/01/17 01:35:58;;;;;;;14.43;2.13;;;4.90;99.90;;;;;;5092911;28;20061;-77
2022/01/17 01:38:23;;;;;;;15.25;2.35;;;5.60;99.90;;;;;;5093808;28;20039;-78
2022/01/17 01:40:49;;;;;;;14.82;2.35;;;4.90;99.90;;;;;;5092737;28;20058;-76
2022/01/17 01:43:15;;;;;;;12.77;3.13;;;4.90;99.90;;;;;;5092818;28;20123;-79
2022/01/17 01:45:40;;;;;;;17.42;3.00;;;5.30;99.90;;;;;;5094278;28;20498;-79
2022/01/17 01:48:08;;;;;;;11.30;2.22;;;4.90;99.90;;;;;;5094196;28;20040;-78
2022/01/17 01:50:34;;;;;;;18.90;3.00;;;4.90;99.90;;;;;;5092666;28;20479;-77
2022/01/17 01:53:00;;;;;;;16.63;3.17;;;4.90;99.90;;;;;;5093108;28;20101;-78
2022/01/17 01:55:26;;;;;;;13.38;2.40;;;4.90;99.90;;;;;;5093797;28;20471;-77
2022/01/17 01:57:51;;;;;;;13.25;2.42;;;4.90;99.90;;;;;;5094505;28;20055;-78
2022/01/17 02:00:18;;;;;;;9.63;2.63;;;4.80;99.90;;;;;;5092688;28;20044;-78
2022/01/17 02:02:45;;;;;;;16.27;2.53;;;4.90;99.90;;;;;;5094127;28;20399;-78
2022/01/17 02:05:11;;;;;;;12.55;2.60;;;4.90;99.90;;;;;;5093881;28;20114;-76
2022/01/17 02:07:38;;;;;;;12.75;2.63;;;4.90;99.90;;;;;;5092571;28;20105;-78
2022/01/17 02:10:05;;;;;;;13.00;2.33;;;4.80;99.90;;;;;;5093409;28;20443;-77
2022/01/17 02:12:32;;;;;;;20.02;2.53;;;4.80;99.90;;;;;;5094101;28;20253;-76
2022/01/17 02:14:58;;;;;;;18.40;2.17;;;4.80;99.90;;;;;;5093934;28;20044;-77
2022/01/17 02:17:25;;;;;;;14.02;2.38;;;4.80;99.90;;;;;;5093420;28;20056;-77
2022/01/17 02:20:09;;;;;;;13.05;2.33;;;4.80;99.90;;;;;;5092758;28;20059;-78
2022/01/17 02:22:39;;;;;;;16.00;2.70;;;4.70;99.90;;;;;;5092382;28;20052;-77
2022/01/17 02:25:05;;;;;;;12.98;2.55;;;4.80;99.90;;;;;;5093202;28;20132;-77
2022/01/17 02:27:31;;;;;;;14.38;2.92;;;4.70;99.90;;;;;;5094032;28;20040;-78
2022/01/17 02:29:57;;;;;;;19.38;3.35;;;4.70;99.90;;;;;;5092483;28;20101;-77
2022/01/17 02:32:22;;;;;;;14.20;2.75;;;4.70;99.90;;;;;;5102056;28;20086;-76
2022/01/17 02:34:48;;;;;;;16.52;1.85;;;4.70;99.90;;;;;;5104586;28;20048;-77
2022/01/17 02:37:15;;;;;;;13.30;2.15;;;4.70;99.90;;;;;;5108224;28;20043;-77
2022/01/17 02:39:40;;;;;;;13.65;2.33;;;4.70;99.90;;;;;;5094045;28;20062;-78
2022/01/17 02:42:06;;;;;;;14.88;2.67;;;4.70;99.90;;;;;;5093615;28;20048;-78
2022/01/17 02:44:32;;;;;;;13.55;2.47;;;4.70;99.90;;;;;;5091926;28;20427;-78
2022/01/17 02:47:00;;;;;;;18.83;2.58;;;4.70;99.90;;;;;;5093081;28;20048;-74
2022/01/17 02:49:25;;;;;;;17.70;3.55;;;4.60;99.90;;;;;;5093407;28;20050;-78
2022/01/17 02:51:51;;;;;;;16.30;2.90;;;4.60;99.90;;;;;;5093118;28;20493;-78
2022/01/17 02:54:17;;;;;;;9.60;1.75;;;4.70;99.90;;;;;;5093234;28;20043;-77
2022/01/17 02:56:43;;;;;;;14.00;2.20;;;4.50;99.90;;;;;;5092609;28;20039;-77
2022/01/17 02:59:09;;;;;;;17.88;2.95;;;4.60;99.90;;;;;;5092829;28;20055;-78
2022/01/17 03:01:35;;;;;;;22.20;2.40;;;4.60;99.90;;;;;;5091969;28;20047;-77
2022/01/17 03:04:01;;;;;;;13.85;2.10;;;5.00;99.90;;;;;;5091601;28;20101;-77
2022/01/17 03:06:28;;;;;;;11.00;1.92;;;4.60;99.90;;;;;;5092937;28;20059;-78
2022/01/17 03:08:54;;;;;;;13.00;3.17;;;4.60;99.90;;;;;;5092768;28;20036;-77
2022/01/17 03:11:22;;;;;;;12.10;2.30;;;4.60;99.90;;;;;;5092727;28;20109;-77
2022/01/17 03:13:50;;;;;;;16.38;2.50;;;4.60;99.90;;;;;;5092688;28;20067;-78
2022/01/17 03:16:18;;;;;;;17.13;2.90;;;4.60;99.90;;;;;;5092905;28;20032;-77
2022/01/17 03:18:49;;;;;;;16.40;3.10;;;4.60;99.90;;;;;;5092527;28;20491;-77
2022/01/17 03:21:16;;;;;;;15.38;2.47;;;4.60;99.90;;;;;;5091446;28;20052;-78
2022/01/17 03:23:43;;;;;;;15.48;2.70;;;4.50;99.90;;;;;;5092390;28;20044;-78
2022/01/17 03:26:09;;;;;;;13.13;2.67;;;4.50;99.90;;;;;;5092921;28;20463;-78
2022/01/17 03:28:36;;;;;;;16.42;2.80;;;4.60;99.90;;;;;;5092158;28;20127;-76
2022/01/17 03:31:03;;;;;;;15.43;2.78;;;4.70;99.90;;;;;;5092717;28;20514;-76
2022/01/17 03:33:29;;;;;;;18.98;2.97;;;4.70;99.90;;;;;;5095567;28;20364;-78
2022/01/17 03:35:55;;;;;;;14.98;2.95;;;4.90;99.90;;;;;;5096660;28;20047;-78
2022/01/17 03:38:24;;;;;;;12.88;2.80;;;4.80;99.90;;;;;;5096399;28;20044;-78
2022/01/17 03:40:51;;;;;;;18.40;2.50;;;4.90;99.90;;;;;;5095362;28;20098;-78
2022/01/17 03:43:18;;;;;;;16.75;3.50;;;4.90;99.90;;;;;;5096014;28;20109;-78
2022/01/17 03:45:45;;;;;;;17.40;2.63;;;4.90;99.90;;;;;;5095305;28;20043;-78
2022/01/17 03:48:11;;;;;;;14.60;2.30;;;4.90;99.90;;;;;;5096419;28;20063;-78
2022/01/17 03:50:37;;;;;;;18.08;2.78;;;5.00;99.90;;;;;;5096397;28;20044;-78
2022/01/17 03:53:03;;;;;;;10.60;2.80;;;5.00;99.90;;;;;;5096277;28;20039;-78
2022/01/17 03:55:32;;;;;;;13.43;2.72;;;5.60;99.90;;;;;;5096474;28;20047;-77
2022/01/17 03:57:58;;;;;;;13.25;2.33;;;5.10;99.90;;;;;;5095026;28;20048;-78
2022/01/17 04:00:30;;;;;;;18.55;3.40;;;5.60;99.90;;;;;;5094783;28;20096;-78
2022/01/17 04:02:57;;;;;;;16.77;2.53;;;5.10;99.90;;;;;;5096060;28;20040;-76
2022/01/17 04:05:22;;;;;;;17.88;2.50;;;5.10;99.90;;;;;;5095045;28;20185;-78
2022/01/17 04:07:48;;;;;;;8.95;2.03;;;5.10;99.90;;;;;;5095869;28;20089;-78
2022/01/17 04:10:14;;;;;;;13.40;3.38;;;5.10;99.90;;;;;;5095970;28;20040;-76
2022/01/17 04:12:41;;;;;;;17.77;3.20;;;5.10;99.90;;;;;;5096191;28;20059;-78
2022/01/17 04:15:08;;;;;;;11.48;2.45;;;5.10;99.90;;;;;;5094374;28;20048;-78
2022/01/17 04:17:34;;;;;;;16.05;3.13;;;5.10;99.90;;;;;;5095848;28;20050;-77
2022/01/17 04:20:05;;;;;;;14.80;2.40;;;5.10;99.90;;;;;;5094280;28;20138;-76
2022/01/17 04:22:35;;;;;;;14.95;2.75;;;5.00;99.90;;;;;;5095761;28;20079;-78
2022/01/17 04:25:02;;;;;;;14.63;2.58;;;4.90;99.90;;;;;;5095567;28;20055;-78
2022/01/17 04:27:27;;;;;;;12.02;3.08;;;4.90;99.90;;;;;;5095797;28;20075;-78
2022/01/17 04:29:53;;;;;;;12.27;2.42;;;4.90;99.90;;;;;;5093683;28;20079;-79
2022/01/17 04:32:18;;;;;;;12.30;2.50;;;4.90;99.90;;;;;;5094068;28;20047;-78
2022/01/17 04:34:44;;;;;;;14.07;2.90;;;5.00;99.90;;;;;;5095316;28;20040;-78
2022/01/17 04:37:10;;;;;;;14.00;2.33;;;5.00;99.90;;;;;;5095217;28;20044;-78
2022/01/17 04:39:35;;;;;;;13.95;2.35;;;5.00;99.90;;;;;;5095700;28;20123;-78
2022/01/17 04:42:09;;;;;;;15.50;2.30;;;5.30;99.90;;;;;;5094165;28;20083;-78
2022/01/17 04:47:19;;;;;;;14.30;2.67;;;5.10;99.90;;;;;;5094800;28;20377;-78
2022/01/17 04:49:45;;;;;;;16.00;2.50;;;5.10;99.90;;;;;;5094977;28;20040;-78
2022/01/17 04:52:13;;;;;;;16.13;2.35;;;5.10;99.90;;;;;;5094940;28;20472;-78
2022/01/17 04:54:41;;;;;;;15.70;2.47;;;5.20;99.90;;;;;;5095323;28;20036;-77
2022/01/17 04:57:08;;;;;;;14.82;2.35;;;5.20;99.90;;;;;;5095215;28;20498;-77
2022/01/17 04:59:34;;;;;;;11.05;1.88;;;5.20;99.90;;;;;;5095188;28;20036;-77
2022/01/17 05:02:00;;;;;;;12.88;2.20;;;5.20;99.90;;;;;;5094519;28;20049;-78
2022/01/17 05:04:25;;;;;;;13.57;1.80;;;5.20;99.90;;;;;;5094745;28;20087;-78
2022/01/17 05:06:51;;;;;;;13.73;2.20;;;5.20;99.90;;;;;;5093365;28;20392;-78
2022/01/17 05:09:17;;;;;;;10.38;1.85;;;5.30;99.90;;;;;;5093719;28;20500;-78
2022/01/17 05:11:43;;;;;;;12.30;2.10;;;5.30;99.90;;;;;;5094114;28;20388;-76
2022/01/17 05:14:09;;;;;;;10.98;1.92;;;5.80;99.90;;;;;;5094825;28;20157;-79
2022/01/17 05:16:41;;;;;;;11.07;1.88;;;5.30;99.90;;;;;;5094817;28;20068;-77
2022/01/17 05:21:51;;;;;;;14.55;2.42;;;5.30;99.90;;;;;;5094387;28;20044;-77
2022/01/17 05:24:16;;;;;;;10.73;2.03;;;5.30;99.90;;;;;;5094523;28;20044;-79
2022/01/17 05:26:42;;;;;;;18.83;3.03;;;5.30;99.90;;;;;;5094548;28;20411;-78
2022/01/17 05:29:08;;;;;;;16.85;2.50;;;5.30;99.90;;;;;;5094333;28;20043;-78
2022/01/17 05:31:33;;;;;;;10.77;2.10;;;5.30;99.90;;;;;;5094387;28;20043;-79
2022/01/17 05:33:59;;;;;;;11.65;2.08;;;5.30;99.90;;;;;;5093661;28;20043;-79
2022/01/17 05:36:25;;;;;;;17.00;3.13;;;5.30;99.90;;;;;;5093179;28;20074;-78
2022/01/17 05:38:52;;;;;;;12.80;2.40;;;5.40;99.90;;;;;;5094178;28;20083;-78
2022/01/17 05:41:20;;;;;;;11.10;2.88;;;5.40;99.90;;;;;;5094421;28;20032;-78
2022/01/17 05:43:46;;;;;;;12.35;2.50;;;5.40;99.90;;;;;;5094020;28;20072;-78
2022/01/17 05:46:12;;;;;;;14.30;2.35;;;5.40;99.90;;;;;;5093992;28;20078;-77
2022/01/17 05:48:38;;;;;;;14.60;2.85;;;5.50;99.90;;;;;;5093388;28;20372;-78
2022/01/17 05:51:04;;;;;;;19.13;3.08;;;5.50;99.90;;;;;;5092636;28;20076;-79
2022/01/17 05:53:30;;;;;;;11.07;2.28;;;5.50;99.90;;;;;;5094140;28;20072;-77
2022/01/17 05:55:56;;;;;;;15.40;3.05;;;5.50;99.90;;;;;;5093819;28;20048;-75
2022/01/17 05:58:22;;;;;;;17.92;2.63;;;5.50;99.90;;;;;;5092573;28;20495;-78
2022/01/17 06:00:47;;;;;;;13.38;2.85;;;5.50;99.90;;;;;;5093862;28;20364;-78
2022/01/17 06:03:13;;;;;;;10.57;2.42;;;5.60;99.90;;;;;;5093497;28;20048;-79
2022/01/17 06:05:39;;;;;;;14.50;2.85;;;5.60;99.90;;;;;;5093297;28;20040;-78
2022/01/17 06:08:04;;;;;;;14.73;2.80;;;5.60;99.90;;;;;;5093641;28;20097;-79
2022/01/17 06:10:30;;;;;;;13.30;2.50;;;5.60;99.90;;;;;;5093821;28;20044;-79
2022/01/17 06:12:56;;;;;;;12.70;2.53;;;5.60;99.90;;;;;;5093656;28;20051;-74
2022/01/17 06:15:22;;;;;;;17.85;3.42;;;5.70;99.90;;;;;;5093472;28;20121;-77
2022/01/17 06:17:48;;;;;;;13.50;3.60;;;5.70;99.90;;;;;;5093511;28;20143;-78
2022/01/17 06:20:14;;;;;;;15.80;3.10;;;5.70;99.90;;;;;;5092815;28;20101;-78
2022/01/17 06:22:39;;;;;;;13.38;3.28;;;5.70;99.90;;;;;;5092518;28;20071;-79
2022/01/17 06:25:06;;;;;;;18.63;3.50;;;5.70;99.90;;;;;;5094014;28;20392;-79
2022/01/17 06:27:32;;;;;;;14.93;3.30;;;5.80;99.90;;;;;;5104889;28;20024;-74
2022/01/17 06:29:59;;;;;;;14.60;3.38;;;5.80;99.90;;;;;;5108398;28;20038;-77
2022/01/17 06:32:26;;;;;;;15.65;2.92;;;5.80;99.90;;;;;;5098402;28;20432;-76
2022/01/17 06:34:55;;;;;;;16.45;3.17;;;5.80;99.90;;;;;;5094314;28;20052;-78
2022/01/17 06:37:22;;;;;;;15.85;3.47;;;5.90;99.90;;;;;;5093338;28;20043;-78
2022/01/17 06:39:54;;;;;;;15.80;2.63;;;5.90;99.90;;;;;;5092099;28;20032;-79
2022/01/17 06:42:24;;;;;;;16.77;2.50;;;5.90;99.90;;;;;;5074764;28;20441;-77
2022/01/17 06:44:51;;;;;;;14.30;3.38;;;5.90;99.90;;;;;;5094615;28;20051;-79
2022/01/17 06:47:17;;;;;;;13.82;2.83;;;6.30;99.90;;;;;;5093045;28;20039;-78
2022/01/17 06:49:42;;;;;;;20.77;3.70;;;6.00;99.90;;;;;;5092823;28;20502;-75
2022/01/17 06:52:08;;;;;;;22.05;2.80;;;6.00;99.90;;;;;;5092953;28;20051;-78
2022/01/17 06:54:34;;;;;;;14.63;3.00;;;6.00;99.90;;;;;;5093093;28;20036;-78
2022/01/17 06:57:00;;;;;;;12.35;2.97;;;5.90;99.90;;;;;;5092759;28;20036;-77
2022/01/17 06:59:25;;;;;;;12.52;4.03;;;5.90;99.90;;;;;;5092819;28;20043;-78
2022/01/17 07:01:51;;;;;;;12.32;2.72;;;5.90;99.90;;;;;;5092863;28;20040;-77
2022/01/17 07:04:17;;;;;;;17.35;2.83;;;6.10;99.90;;;;;;5092639;28;20052;-78
2022/01/17 07:06:43;;;;;;;12.38;3.10;;;5.90;99.90;;;;;;5092131;28;20119;-78
2022/01/17 07:09:11;;;;;;;12.45;2.60;;;5.90;99.90;;;;;;5095423;28;20044;-77
2022/01/17 07:11:39;;;;;;;15.75;3.17;;;6.00;99.90;;;;;;5092733;28;20048;-77
2022/01/17 07:14:13;;;;;;;15.55;3.53;;;6.00;99.90;;;;;;5096550;28;20036;-78
2022/01/17 07:16:40;;;;;;;19.48;4.35;;;6.00;99.90;;;;;;5092879;28;20115;-78
2022/01/17 07:19:07;;;;;;;11.98;3.47;;;6.00;99.90;;;;;;5092455;28;20064;-79
2022/01/17 07:21:33;;;;;;;17.85;3.45;;;6.00;99.90;;;;;;5092642;28;20111;-78
2022/01/17 07:23:59;;;;;;;16.38;3.30;;;6.00;99.90;;;;;;5092199;28;20056;-77
2022/01/17 07:26:25;;;;;;;17.38;3.28;;;6.10;99.90;;;;;;5074323;28;20105;-78
2022/01/17 07:28:51;;;;;;;17.98;3.00;;;6.10;99.90;;;;;;5074839;28;20483;-78
2022/01/17 07:31:17;;;;;;;10.93;2.85;;;6.10;99.90;;;;;;5092574;28;20040;-77
2022/01/17 07:33:42;;;;;;;10.95;2.25;;;6.10;99.90;;;;;;5092529;28;20044;-78
2022/01/17 07:36:08;;;;;;;20.17;2.85;;;6.10;99.90;;;;;;5092704;28;20040;-77
2022/01/17 07:38:35;;;;;;;11.15;2.67;;;6.20;99.90;;;;;;5074033;28;20153;-78
2022/01/17 07:41:02;;;;;;;12.00;2.05;;;6.20;99.90;;;;;;5092152;28;20036;-78
2022/01/17 07:43:27;;;;;;;16.65;2.40;;;6.30;99.90;;;;;;5092936;28;20515;-79
2022/01/17 07:46:04;;;;;;;9.95;2.67;;;6.30;99.90;;;;;;5077115;28;20044;-79
2022/01/17 07:51:16;;;;;;;12.23;2.25;;;6.30;99.90;;;;;;5090592;28;20132;-72
2022/01/17 07:53:41;;;;;;;14.43;3.05;;;6.30;99.90;;;;;;5091753;28;20076;-75
2022/01/17 07:56:07;;;;;;;15.55;2.55;;;6.30;99.90;;;;;;5090800;28;20039;-73
2022/01/17 07:58:33;;;;;;;16.30;2.20;;;6.30;99.90;;;;;;5073542;28;20063;-72
2022/01/17 08:00:58;;;;;;;17.30;2.60;;;6.40;99.90;;;;;;5091783;28;20036;-70
2022/01/17 08:03:24;;;;;;;14.70;1.88;;;6.30;99.90;;;;;;5091232;28;20505;-73
2022/01/17 08:05:50;;;;;;;13.77;2.63;;;6.40;99.90;;;;;;5091812;28;20466;-72
2022/01/17 08:08:15;;;;;;;14.55;2.60;;;6.40;99.90;;;;;;5074255;28;20064;-73
2022/01/17 08:10:41;;;;;;;9.75;1.80;;;6.40;99.90;;;;;;5070012;28;20048;-72
2022/01/17 08:13:09;;;;;;;11.32;2.45;;;6.80;99.90;;;;;;5071936;28;20044;-73
2022/01/17 08:15:37;;;;;;;14.38;3.13;;;6.40;99.90;;;;;;5090428;28;20126;-73
2022/01/17 08:18:03;;;;;;;16.35;2.60;;;6.40;99.90;;;;;;5086405;28;20074;-71
2022/01/17 08:20:30;;;;;;;13.75;2.05;;;6.50;99.90;;;;;;5094028;28;20083;-73
2022/01/17 08:22:59;;;;;;;11.30;1.42;;;6.80;99.90;;;;;;5089329;28;20094;-71
2022/01/17 08:25:25;;;;;;;12.27;1.98;;;6.50;99.90;;;;;;5077836;28;20468;-73
2022/01/17 08:27:51;;;;;;;12.18;2.33;;;6.60;99.90;;;;;;5094998;28;20135;-72
2022/01/17 08:30:16;;;;;;;12.80;2.08;;;6.50;99.90;;;;;;5095680;28;20036;-73
2022/01/17 08:32:42;;;;;;;19.08;3.08;;;6.70;99.90;;;;;;5095597;28;20047;-71
2022/01/17 08:35:09;;;;;;;8.43;2.15;;;6.60;99.90;;;;;;5095504;28;20097;-73
2022/01/17 08:37:34;;;;;;;13.93;2.00;;;6.60;99.90;;;;;;5076836;28;20052;-73
2022/01/17 08:40:02;;;;;;;10.07;2.67;;;6.60;99.90;;;;;;5095416;28;20043;-72
2022/01/17 08:42:29;;;;;;;11.70;1.90;;;6.80;99.90;;;;;;5074233;28;20050;-75
2022/01/17 08:44:56;;;;;;;15.32;2.90;;;6.70;99.90;;;;;;5074789;28;20525;-75
2022/01/17 08:47:22;;;;;;;12.80;2.55;;;6.70;99.90;;;;;;5094394;28;20044;-74
2022/01/17 08:49:48;;;;;;;20.60;3.05;;;6.70;99.90;;;;;;5094632;28;20135;-74
2022/01/17 08:52:15;;;;;;;11.32;2.38;;;6.80;99.90;;;;;;5076649;28;20079;-77
2022/01/17 08:54:43;;;;;;;12.50;2.38;;;6.80;99.90;;;;;;5075633;28;20075;-74
2022/01/17 08:57:09;;;;;;;10.68;2.05;;;6.80;99.90;;;;;;5093486;28;20400;-76
2022/01/17 08:59:35;;;;;;;14.80;3.13;;;6.90;99.90;;;;;;5075629;28;20810;-76
2022/01/17 09:02:01;;;;;;;19.70;3.22;;;7.00;99.90;;;;;;5094524;28;20036;-75
2022/01/17 09:04:27;;;;;;;14.55;2.95;;;6.90;99.90;;;;;;5093534;28;20087;-74
2022/01/17 09:06:52;;;;;;;17.90;2.55;;;6.90;99.90;;;;;;5094199;28;20075;-75
2022/01/17 09:09:18;;;;;;;23.65;2.95;;;7.00;99.90;;;;;;5094035;28;20453;-74
2022/01/17 09:11:44;;;;;;;17.83;2.60;;;7.00;99.90;;;;;;5094168;28;20043;-76
2022/01/17 09:14:10;;;;;;;12.63;2.97;;;7.00;99.90;;;;;;5093572;28;20086;-73
2022/01/17 09:16:37;;;;;;;20.35;3.35;;;7.00;99.90;;;;;;5075997;28;20075;-73
2022/01/17 09:19:04;;;;;;;10.88;2.42;;;7.00;99.90;;;;;;5093624;28;20060;-70
2022/01/17 09:21:31;;;;;;;16.42;2.42;;;7.00;99.90;;;;;;5093986;28;20047;-71
2022/01/17 09:23:58;;;;;;;13.60;2.38;;;7.10;99.90;;;;;;5075532;28;20063;-70
2022/01/17 09:26:27;;;;;;;20.38;4.50;;;7.20;99.90;;;;;;5075586;28;20074;-72
2022/01/17 09:28:54;;;;;;;17.85;4.75;;;7.20;99.90;;;;;;5092826;28;20044;-72
2022/01/17 09:31:20;;;;;;;20.25;3.47;;;7.30;99.90;;;;;;5092631;28;20540;-72
2022/01/17 09:33:46;;;;;;;14.68;3.25;;;7.40;99.90;;;;;;5080995;28;20492;-73
2022/01/17 09:36:13;;;;;;;15.50;2.88;;;7.50;99.90;;;;;;5093074;28;20495;-72
2022/01/17 09:38:39;;;;;;;17.63;2.97;;;7.60;99.90;;;;;;5093263;28;20050;-75
2022/01/17 09:41:06;;;;;;;15.13;3.28;;;7.60;99.90;;;;;;5093244;28;20036;-73
2022/01/17 09:43:31;;;;;;;19.73;4.00;;;7.70;99.90;;;;;;5093214;28;20050;-74
2022/01/17 09:45:57;;;;;;;16.13;2.63;;;8.00;99.90;;;;;;5075110;28;20044;-74
2022/01/17 09:48:34;;;;;;;25.17;2.47;;;7.80;99.90;;;;;;5093197;28;20368;-74
2022/01/17 09:51:05;;;;;;;23.33;3.15;;;7.90;99.90;;;;;;5074920;28;20059;-74
2022/01/17 09:53:38;;;;;;;22.37;3.03;;;7.90;99.90;;;;;;5093417;28;20065;-75
2022/01/17 09:56:06;;;;;;;23.85;3.25;;;7.90;99.90;;;;;;5093058;28;20063;-74
2022/01/17 09:58:35;;;;;;;13.52;2.60;;;7.90;99.90;;;;;;5093817;28;20052;-74
2022/01/17 10:01:03;;;;;;;18.05;2.72;;;8.10;99.90;;;;;;5092919;28;20059;-74
2022/01/17 10:03:30;;;;;;;15.45;3.03;;;8.00;99.90;;;;;;5074984;28;20047;-74
2022/01/17 10:05:57;;;;;;;19.20;3.28;;;8.10;99.90;;;;;;5093097;28;20040;-74
2022/01/17 10:08:23;;;;;;;18.05;4.05;;;8.70;99.90;;;;;;5092855;28;20065;-74
2022/01/17 10:10:57;;;;;;;21.50;2.95;;;8.10;99.90;;;;;;5093191;28;20040;-75
2022/01/17 10:13:32;;;;;;;11.27;2.22;;;8.10;99.90;;;;;;5093687;28;20071;-74
2022/01/17 10:15:58;;;;;;;8.77;2.58;;;8.20;99.90;;;;;;5093054;28;20422;-74
2022/01/17 10:18:32;;;;;;;14.60;2.50;;;8.20;99.90;;;;;;5092757;28;20071;-75
2022/01/17 10:21:05;;;;;;;18.08;2.30;;;8.30;99.90;;;;;;5093159;28;20049;-74
2022/01/17 10:24:10;;;;;;;20.30;2.40;;;8.30;99.90;;;;;;5092794;28;20562;-74
2022/01/17 10:29:34;;;;;;;13.95;2.70;;;8.40;99.90;;;;;;5092477;28;20044;-73
2022/01/17 10:37:20;;;;;;;15.95;2.75;;;8.50;99.90;;;;;;5092449;28;20055;-74
2022/01/17 10:40:06;;;;;;;12.15;2.55;;;8.50;99.90;;;;;;5092452;28;20039;-74
2022/01/17 10:42:45;;;;;;;21.73;3.33;;;8.50;99.90;;;;;;5091969;28;20079;-74
2022/01/17 10:45:21;;;;;;;12.13;2.35;;;8.60;99.90;;;;;;5092171;28;20044;-73
2022/01/17 10:47:49;;;;;;;13.48;2.47;;;8.60;99.90;;;;;;5107807;28;20126;-73
2022/01/17 10:50:21;;;;;;;19.92;3.53;;;8.60;99.90;;;;;;5092280;28;20055;-74
2022/01/17 10:52:49;;;;;;;;;;;8.60;99.90;;;;;;5092772;28;20123;-74
2022/01/17 10:55:19;;;;;;;15.13;2.63;;;8.60;99.90;;;;;;5092204;28;20268;-74
2022/01/17 10:57:48;;;;;;;23.08;2.58;;;8.60;99.90;;;;;;5092220;28;20050;-74
2022/01/17 11:00:20;;;;;;;16.50;3.08;;;8.60;99.90;;;;;;5092095;28;20040;-72
2022/01/17 11:02:53;;;;;;;;;;;8.60;99.90;;;;;;5092322;28;20050;-72
2022/01/17 11:05:21;;;;;;;;;;;8.60;99.90;;;;;;5092229;28;19920;-75
2022/01/17 11:07:55;;;;;;;15.85;3.28;;;8.60;99.90;;;;;;5092308;28;19963;-74
2022/01/17 11:10:24;;;;;;;16.85;2.65;;;8.60;99.90;;;;;;5091885;28;20062;-74
2022/01/17 11:12:55;;;;;;;17.15;2.30;;;8.70;99.90;;;;;;5092184;28;20126;-75
2022/01/17 11:15:21;;;;;;;18.77;3.97;;;8.60;99.90;;;;;;5091872;28;20052;-76
2022/01/17 11:17:57;;;;;;;19.52;3.72;;;8.70;99.90;;;;;;5092127;28;20046;-75
2022/01/17 11:20:26;;;;;;;14.80;3.00;;;8.70;99.90;;;;;;5091644;28;20495;-75
2022/01/17 11:22:57;;;;;;;15.38;2.60;;;8.80;99.90;;;;;;5092200;28;20154;-75
2022/01/17 11:25:28;;;;;;;21.60;2.00;;;8.70;99.90;;;;;;5073724;28;20084;-74
2022/01/17 11:27:54;;;;;;;27.23;4.28;;;8.70;99.90;;;;;;5092129;28;20428;-75
2022/01/17 11:30:21;;;;;;;14.90;2.10;;;8.70;99.90;;;;;;5091823;28;20048;-73
2022/01/17 11:32:49;;;;;;;15.25;5.13;;;8.70;99.90;;;;;;5092085;28;20122;-74
2022/01/17 11:35:16;;;;;;;13.35;2.55;;;8.70;99.90;;;;;;5073395;28;20052;-74
2022/01/17 11:37:46;;;;;;;14.75;2.03;;;8.70;99.90;;;;;;5091589;28;20080;-84
2022/01/17 11:40:14;;;;;;;19.25;3.20;;;8.70;99.90;;;;;;5088938;28;20509;-74
2022/01/17 11:42:48;;;;;;;25.70;3.53;;;8.70;99.90;;;;;;5091504;28;20043;-74
2022/01/17 11:45:23;;;;;;;21.83;4.13;;;8.70;99.90;;;;;;5091511;28;20040;-73
2022/01/17 11:47:50;;;;;;;22.85;3.33;;;8.90;99.90;;;;;;5074000;28;20056;-74
2022/01/17 11:50:28;;;;;;;24.75;4.32;;;8.60;99.90;;;;;;5091162;28;20105;-72
2022/01/17 11:53:00;;;;;;;27.48;4.72;;;8.60;99.90;;;;;;5092962;28;20476;-74
2022/01/17 11:58:30;;;;;;;25.52;4.32;;;8.80;99.90;;;;;;5077434;28;20056;-75
2022/01/17 12:01:01;;;;;;;21.58;3.92;;;8.70;99.90;;;;;;5095840;28;20445;-74
2022/01/17 12:03:28;;;;;;;26.58;3.72;;;9.10;99.90;;;;;;5095881;28;20056;-74
2022/01/17 12:05:56;;;;;;;21.17;3.88;;;8.80;99.90;;;;;;5095709;28;20094;-74
2022/01/17 12:08:24;;;;;;;24.85;3.75;;;8.90;99.90;;;;;;5095658;28;20443;-74
2022/01/17 12:11:06;;;;;;;19.65;3.75;;;9.00;99.90;;;;;;5095725;28;20090;-74
2022/01/17 12:13:40;;;;;;;19.58;3.67;;;9.00;99.90;;;;;;5096063;28;20050;-74
2022/01/17 12:16:19;;;;;;;19.75;4.30;;;9.10;99.90;;;;;;5095732;28;20044;-70
2022/01/17 12:18:49;;;;;;;19.65;3.85;;;9.10;99.90;;;;;;5095359;28;20134;-72
2022/01/17 12:21:36;;;;;;;22.52;3.92;;;9.00;99.90;;;;;;5093719;28;20051;-79
2022/01/17 12:24:25;;;;;;;25.52;3.67;;;9.10;99.90;;;;;;5097108;28;20048;-83
2022/01/17 12:26:57;;;;;;;26.65;4.60;;;9.50;99.90;;;;;;5097775;28;20047;-82
2022/01/17 12:29:36;;;;;;;;;;;9.10;99.90;;;;;;5078069;28;20036;-82
2022/01/17 12:32:02;;;;;;;23.60;3.03;;;9.10;99.90;;;;;;5096116;28;19971;-82
2022/01/17 12:34:28;;;;;;;21.42;4.32;;;9.00;99.90;;;;;;5095993;28;20078;-81
2022/01/17 12:36:56;;;;;;;21.50;2.88;;;9.10;99.90;;;;;;5095550;28;20119;-82
2022/01/17 12:39:24;;;;;;;19.27;3.17;;;9.10;99.90;;;;;;5075067;28;20048;-81
2022/01/17 12:41:52;;;;;;;20.70;3.30;;;9.10;99.90;;;;;;5095104;28;20047;-80
2022/01/17 12:44:24;;;;;;;16.08;3.03;;;9.00;99.90;;;;;;5094525;28;20427;-80
2022/01/17 12:47:12;;;;;;;13.10;2.22;;;8.90;99.90;;;;;;5067198;28;20040;-82
2022/01/17 12:49:39;;;;;;;10.82;2.03;;;8.90;99.90;;;;;;5082241;28;20044;-77
2022/01/17 12:52:04;;;;;;;17.23;2.70;;;9.10;99.90;;;;;;5093545;28;20040;-77
2022/01/17 12:54:33;;;;;;;19.55;3.17;;;9.00;99.90;;;;;;5084204;28;20059;-76
2022/01/17 12:57:02;;;;;;;18.50;2.72;;;9.00;99.90;;;;;;5093400;28;20135;-78
2022/01/17 12:59:43;;;;;;;14.82;2.17;;;9.00;99.90;;;;;;5093351;28;20544;-80
2022/01/17 13:02:12;;;;;;;15.65;3.08;;;9.00;99.90;;;;;;5089736;28;20036;-77
2022/01/17 13:04:39;;;;;;;15.35;2.55;;;10.00;99.90;;;;;;5080345;28;20086;-76
2022/01/17 13:07:10;;;;;;;18.25;2.03;;;10.00;99.90;;;;;;5093466;28;20055;-76
2022/01/17 13:09:40;;;;;;;25.50;2.50;;;9.10;99.90;;;;;;5092674;28;20062;-77
2022/01/17 13:12:07;;;;;;;13.60;2.88;;;9.10;99.90;;;;;;5093432;28;20050;-78
2022/01/17 13:14:34;;;;;;;16.77;2.95;;;9.00;99.90;;;;;;5093256;28;20546;-79
2022/01/17 13:16:59;;;;;;;28.65;2.97;;;9.00;99.90;;;;;;5081415;28;20052;-83
2022/01/17 13:19:25;;;;;;;13.52;2.90;;;9.00;99.90;;;;;;5093421;28;20580;-80
2022/01/17 13:21:51;;;;;;;12.10;2.45;;;8.90;99.90;;;;;;5093944;28;20583;-82